Savannah, Georgia
Current Conditions -  °F | °C
As of 7:58 AM on Monday 22 Dec 2014 (Local Time) from KSVN Reporting Station
Haze Haze  
Wind Chill: 46°   Ceiling: 300
Heat Index: 48°   Visibility: 1.5mi
Dew Point: 48°   Wind: 5mph
Humidity: 100%   Direction: 30°NNE
Pressure: 30.03"   Gusts: NA
Location:  32.08°N, 81.09°W
Report Text: KSVN 221258Z 03004KT 1 1/2SM BR OVC003 09/09 A3003 RMK AO2A CIG 002 RWY10
Loading
Personal Weather Stations






























Interactive Weather Map New forecast layout! Learn more

10-Day Weather Forecast

Advertisements
Track Severe Weather on mobile